createdAt,value
2022-12-25T00:01:26.051Z,100626.81
2022-12-25T00:03:54.217Z,100630.44
2022-12-25T00:06:22.246Z,100626.81
2022-12-25T00:08:50.105Z,100616.03
2022-12-25T00:11:19.886Z,100612.41
2022-12-25T00:13:48.820Z,100619.63
2022-12-25T00:16:21.104Z,100622.31
2022-12-25T00:18:48.969Z,100617.94
2022-12-25T00:21:18.181Z,100624.09
2022-12-25T00:23:47.247Z,100618.75
2022-12-25T00:26:18.199Z,100610.75
2022-12-25T00:28:46.466Z,100615.34
2022-12-25T00:31:17.976Z,100610.06
2022-12-25T00:33:47.817Z,100617.06
2022-12-25T00:36:18.256Z,100612.75
2022-12-25T00:38:47.004Z,100607.25
2022-12-25T00:41:42.564Z,100610.75
2022-12-25T00:44:13.802Z,100604.66
2022-12-25T00:46:42.987Z,100597.63
2022-12-25T00:49:12.314Z,100596.75
2022-12-25T00:51:40.333Z,100610.19
2022-12-25T00:54:08.208Z,100612.94
2022-12-25T00:56:36.343Z,100611.19
2022-12-25T00:59:04.233Z,100612.88
2022-12-25T01:01:33.426Z,100619.94
2022-12-25T01:04:01.655Z,100609.41
2022-12-25T01:06:29.826Z,100612.06
2022-12-25T01:09:17.427Z,100621.00
2022-12-25T01:11:45.905Z,100615.84
2022-12-25T01:14:14.099Z,100624.72
2022-12-25T01:16:42.594Z,100638.91
2022-12-25T01:19:11.976Z,100637.16
2022-12-25T01:21:40.743Z,100648.75
2022-12-25T01:24:09.119Z,100629.19
2022-12-25T01:26:37.606Z,100627.28
2022-12-25T01:29:05.568Z,100621.00
2022-12-25T01:31:33.799Z,100626.34
2022-12-25T01:34:01.783Z,100613.91
2022-12-25T01:36:29.795Z,100618.31
2022-12-25T01:38:57.720Z,100622.69
2022-12-25T01:41:25.706Z,100622.88
2022-12-25T01:44:06.104Z,100633.22
2022-12-25T01:46:35.575Z,100635.09
2022-12-25T01:49:25.668Z,100637.66
2022-12-25T01:52:17.524Z,100635.97
2022-12-25T01:55:06.101Z,100632.31
2022-12-25T01:57:37.576Z,100625.22
2022-12-25T02:00:08.094Z,100613.63
2022-12-25T02:02:37.253Z,100609.06
2022-12-25T02:05:25.960Z,100615.19
2022-12-25T02:07:54.562Z,100617.06
2022-12-25T02:10:23.321Z,100616.13
2022-12-25T02:12:52.429Z,100603.78
2022-12-25T02:15:27.229Z,100613.63
2022-12-25T02:18:31.919Z,100613.47
2022-12-25T02:21:25.609Z,100611.66
2022-12-25T02:24:21.843Z,100597.44
2022-12-25T02:27:19.470Z,100592.06
2022-12-25T02:30:03.395Z,100597.50
2022-12-25T02:32:31.639Z,100588.75
2022-12-25T02:35:10.356Z,100584.22
2022-12-25T02:38:07.334Z,100579.88
2022-12-25T02:40:43.694Z,100594.06
2022-12-25T02:43:50.125Z,100595.63
2022-12-25T02:46:41.837Z,100577.19
2022-12-25T02:49:38.108Z,100578.03
2022-12-25T02:52:31.241Z,100574.41
2022-12-25T02:55:35.718Z,100574.34
2022-12-25T02:58:30.028Z,100573.41
2022-12-25T03:01:25.816Z,100572.44
2022-12-25T03:04:16.184Z,100573.28
2022-12-25T03:07:18.982Z,100559.09
2022-12-25T03:10:21.705Z,100554.69
2022-12-25T03:13:14.803Z,100541.50
2022-12-25T03:16:02.164Z,100540.53
2022-12-25T03:18:31.319Z,100534.25
2022-12-25T03:21:19.145Z,100534.16
2022-12-25T03:24:12.397Z,100536.81
2022-12-25T03:26:55.507Z,100531.50
2022-12-25T03:29:49.932Z,100535.19
2022-12-25T03:32:44.244Z,100533.47
2022-12-25T03:36:07.319Z,100538.38
2022-12-25T03:38:51.059Z,100536.84
2022-12-25T03:42:08.478Z,100537.03
2022-12-25T03:45:01.446Z,100537.66
2022-12-25T03:47:53.810Z,100536.94
2022-12-25T03:50:44.895Z,100539.75
2022-12-25T03:53:41.219Z,100531.16
2022-12-25T03:56:28.951Z,100541.00
2022-12-25T03:59:23.147Z,100527.75
2022-12-25T04:02:11.072Z,100531.38
2022-12-25T04:04:57.848Z,100530.44
2022-12-25T04:07:44.497Z,100516.19
2022-12-25T04:10:30.860Z,100521.44
2022-12-25T04:13:17.507Z,100523.06
2022-12-25T04:16:03.920Z,100527.38
2022-12-25T04:18:50.763Z,100521.94
2022-12-25T04:21:37.409Z,100523.59
2022-12-25T04:24:24.436Z,100512.88
2022-12-25T04:27:10.999Z,100516.28
2022-12-25T04:29:58.032Z,100516.22
2022-12-25T04:32:44.611Z,100521.41
2022-12-25T04:35:31.666Z,100514.34
2022-12-25T04:37:59.533Z,100509.81
2022-12-25T04:40:27.519Z,100506.22
2022-12-25T04:42:55.178Z,100509.63
2022-12-25T04:45:22.931Z,100507.88
2022-12-25T04:47:50.633Z,100491.81
2022-12-25T04:50:18.607Z,100489.84
2022-12-25T04:52:46.473Z,100485.41
2022-12-25T04:55:14.387Z,100480.84
2022-12-25T04:57:42.121Z,100480.75
2022-12-25T05:00:10.741Z,100491.44
2022-12-25T05:02:38.572Z,100496.19
2022-12-25T05:05:06.827Z,100493.66
2022-12-25T05:07:34.506Z,100484.03
2022-12-25T05:10:02.299Z,100476.97
2022-12-25T05:12:30.251Z,100459.22
2022-12-25T05:14:58.101Z,100476.03
2022-12-25T05:17:26.015Z,100470.81
2022-12-25T05:19:53.692Z,100469.88
2022-12-25T05:22:21.403Z,100475.16
2022-12-25T05:24:49.403Z,100469.63
2022-12-25T05:27:17.228Z,100473.97
2022-12-25T05:29:44.973Z,100462.28
2022-12-25T05:32:26.387Z,100465.69
2022-12-25T05:34:54.078Z,100462.47
2022-12-25T05:37:41.684Z,100451.53
2022-12-25T05:40:10.301Z,100452.91
2022-12-25T05:42:38.067Z,100447.53
2022-12-25T05:45:06.627Z,100452.69
2022-12-25T05:47:34.266Z,100451.66
2022-12-25T05:50:02.383Z,100448.91
2022-12-25T05:52:34.614Z,100455.19
2022-12-25T05:55:02.718Z,100453.53
2022-12-25T05:57:31.932Z,100454.69
2022-12-25T05:59:59.638Z,100461.75
2022-12-25T06:02:27.602Z,100457.41
2022-12-25T06:04:55.530Z,100452.22
2022-12-25T06:07:23.404Z,100462.06
2022-12-25T06:09:51.144Z,100462.06
2022-12-25T06:12:18.948Z,100458.69
2022-12-25T06:14:46.682Z,100461.38
2022-12-25T06:17:14.482Z,100452.63
2022-12-25T06:19:42.793Z,100455.88
2022-12-25T06:22:10.626Z,100448.81
2022-12-25T06:24:38.639Z,100451.34
2022-12-25T06:27:06.333Z,100448.44
2022-12-25T06:29:34.223Z,100436.09
2022-12-25T06:32:01.881Z,100437.63
2022-12-25T06:34:30.097Z,100436.78
2022-12-25T06:36:57.819Z,100437.72
2022-12-25T06:39:25.608Z,100431.34
2022-12-25T06:41:53.465Z,100437.56
2022-12-25T06:44:21.356Z,100423.41
2022-12-25T06:46:49.025Z,100442.91
2022-12-25T06:49:16.740Z,100445.78
2022-12-25T06:51:44.396Z,100445.66
2022-12-25T06:54:12.152Z,100448.41
2022-12-25T06:56:40.039Z,100448.31
2022-12-25T06:59:10.848Z,100451.94
2022-12-25T07:01:56.413Z,100444.88
2022-12-25T07:04:37.923Z,100450.22
2022-12-25T07:07:09.200Z,100452.72
2022-12-25T07:09:39.039Z,100451.00
2022-12-25T07:12:23.544Z,100442.97
2022-12-25T07:14:55.444Z,100434.19
2022-12-25T07:17:24.637Z,100437.75
2022-12-25T07:19:52.436Z,100429.81
2022-12-25T07:22:20.264Z,100425.50
2022-12-25T07:24:48.110Z,100424.69
2022-12-25T07:27:15.825Z,100418.34
2022-12-25T07:29:43.739Z,100418.41
2022-12-25T07:32:12.409Z,100406.66
2022-12-25T07:34:40.317Z,100407.53
2022-12-25T07:37:08.197Z,100400.31
2022-12-25T07:39:35.932Z,100407.41
2022-12-25T07:42:04.157Z,100410.28
2022-12-25T07:44:32.429Z,100417.50
2022-12-25T07:47:00.193Z,100416.63
2022-12-25T07:49:28.080Z,100419.56
2022-12-25T07:51:55.851Z,100425.56
2022-12-25T07:54:23.878Z,100428.03
2022-12-25T07:56:54.769Z,100431.44
2022-12-25T07:59:22.632Z,100424.38
2022-12-25T08:01:51.158Z,100423.50
2022-12-25T08:04:19.170Z,100429.63
2022-12-25T08:06:47.283Z,100422.47
2022-12-25T08:09:15.281Z,100422.47
2022-12-25T08:11:47.380Z,100430.44
2022-12-25T08:14:15.884Z,100430.38
2022-12-25T08:16:44.623Z,100432.97
2022-12-25T08:19:14.647Z,100438.88
2022-12-25T08:21:43.309Z,100433.63
2022-12-25T08:24:11.872Z,100441.44
2022-12-25T08:26:39.653Z,100444.91
2022-12-25T08:29:07.818Z,100448.44
2022-12-25T08:31:42.475Z,100433.31
2022-12-25T08:34:13.860Z,100420.13
2022-12-25T08:36:42.048Z,100424.41
2022-12-25T08:39:10.065Z,100420.53
2022-12-25T08:41:42.453Z,100408.84
2022-12-25T08:44:12.547Z,100386.53
2022-12-25T08:46:40.561Z,100363.25
2022-12-25T08:49:08.608Z,100343.88
2022-12-25T08:51:37.376Z,100353.44
2022-12-25T08:54:05.370Z,100361.31
2022-12-25T08:56:33.437Z,100367.44
2022-12-25T08:59:01.468Z,100362.91
2022-12-25T09:01:29.714Z,100369.00
2022-12-25T09:03:57.710Z,100387.25
2022-12-25T09:06:25.796Z,100398.59
2022-12-25T09:08:53.743Z,100394.69
2022-12-25T09:11:22.400Z,100400.78
2022-12-25T09:13:50.877Z,100406.75
2022-12-25T09:16:22.213Z,100410.22
2022-12-25T09:18:51.450Z,100409.00
2022-12-25T09:21:19.835Z,100424.09
2022-12-25T09:23:48.388Z,100422.72
2022-12-25T09:26:18.887Z,100428.41
2022-12-25T09:28:51.903Z,100416.59
2022-12-25T09:31:22.600Z,100426.84
2022-12-25T09:33:55.347Z,100419.53
2022-12-25T09:36:25.663Z,100415.63
2022-12-25T09:38:53.623Z,100410.06
2022-12-25T09:41:49.149Z,100415.88
2022-12-25T09:44:56.667Z,100401.56
2022-12-25T09:47:32.222Z,100406.84
2022-12-25T09:50:19.364Z,100395.91
2022-12-25T09:53:04.406Z,100383.75
2022-12-25T09:55:38.607Z,100385.56
2022-12-25T09:58:13.039Z,100385.44
2022-12-25T10:00:56.010Z,100375.66
2022-12-25T10:03:42.017Z,100373.00
2022-12-25T10:06:28.084Z,100373.00
2022-12-25T10:09:10.791Z,100369.44
2022-12-25T10:12:12.905Z,100373.00
2022-12-25T10:15:16.037Z,100370.38
2022-12-25T10:18:07.899Z,100374.09
2022-12-25T10:20:54.686Z,100366.06
2022-12-25T10:23:38.966Z,100371.31
2022-12-25T10:26:21.380Z,100367.53
2022-12-25T10:29:16.787Z,100354.00
2022-12-25T10:31:48.363Z,100352.19
2022-12-25T10:34:17.069Z,100352.97
2022-12-25T10:36:46.469Z,100348.03
2022-12-25T10:39:26.735Z,100330.53
2022-12-25T10:42:39.454Z,100325.97
2022-12-25T10:45:09.576Z,100324.84
2022-12-25T10:47:42.701Z,100329.03
2022-12-25T10:50:25.457Z,100335.81
2022-12-25T10:53:26.637Z,100342.63
2022-12-25T10:56:05.389Z,100334.41
2022-12-25T10:58:34.196Z,100339.47
2022-12-25T11:01:07.566Z,100337.31
2022-12-25T11:03:45.951Z,100327.31
2022-12-25T11:06:31.130Z,100326.09
2022-12-25T11:09:01.585Z,100328.53
2022-12-25T11:11:30.677Z,100321.25
2022-12-25T11:14:02.049Z,100320.75
2022-12-25T11:16:37.027Z,100318.84
2022-12-25T11:19:31.521Z,100310.13
2022-12-25T11:22:03.368Z,100303.38
2022-12-25T11:24:35.134Z,100302.25
2022-12-25T11:27:08.936Z,100292.13
2022-12-25T11:29:53.194Z,100276.78
2022-12-25T11:32:55.584Z,100281.28
2022-12-25T11:35:53.003Z,100272.28
2022-12-25T11:38:21.457Z,100272.19
2022-12-25T11:40:58.696Z,100259.31
2022-12-25T11:43:53.634Z,100265.44
2022-12-25T11:46:50.314Z,100262.97
2022-12-25T11:49:21.572Z,100253.94
2022-12-25T11:51:56.579Z,100252.91
2022-12-25T11:54:45.896Z,100245.56
2022-12-25T11:57:13.917Z,100238.47
2022-12-25T11:59:56.355Z,100227.28
2022-12-25T12:02:43.051Z,100231.78
2022-12-25T12:05:43.277Z,100236.00
2022-12-25T12:08:11.802Z,100237.13
2022-12-25T12:11:16.309Z,100240.25
2022-12-25T12:13:59.421Z,100233.91
2022-12-25T12:16:27.641Z,100229.78
2022-12-25T12:18:55.707Z,100244.66
2022-12-25T12:21:30.084Z,100240.09
2022-12-25T12:24:12.574Z,100234.97
2022-12-25T12:26:44.489Z,100241.38
2022-12-25T12:29:46.059Z,100235.25
2022-12-25T12:32:49.579Z,100235.41
2022-12-25T12:35:20.264Z,100239.06
2022-12-25T12:37:57.356Z,100235.59
2022-12-25T12:40:37.326Z,100224.78
2022-12-25T12:43:22.944Z,100229.19
2022-12-25T12:45:58.037Z,100238.19
2022-12-25T12:48:29.607Z,100233.19
2022-12-25T12:51:11.628Z,100229.72
2022-12-25T12:53:42.663Z,100220.13
2022-12-25T12:56:20.268Z,100225.69
2022-12-25T12:58:51.129Z,100221.25
2022-12-25T13:02:06.018Z,100215.13
2022-12-25T13:05:07.480Z,100214.50
2022-12-25T13:07:57.750Z,100216.41
2022-12-25T13:10:35.329Z,100209.25
2022-12-25T13:13:24.381Z,100202.91
2022-12-25T13:15:53.217Z,100208.38
2022-12-25T13:18:22.561Z,100202.78
2022-12-25T13:20:57.329Z,100219.38
2022-12-25T13:23:29.110Z,100214.09
2022-12-25T13:26:10.836Z,100212.94
2022-12-25T13:28:38.754Z,100213.16
2022-12-25T13:31:14.028Z,100218.31
2022-12-25T13:34:09.517Z,100217.53
2022-12-25T13:36:40.125Z,100207.78
2022-12-25T13:39:14.363Z,100213.81
2022-12-25T13:42:08.552Z,100200.13
2022-12-25T13:44:55.100Z,100202.66
2022-12-25T13:47:35.478Z,100190.09
2022-12-25T13:50:33.968Z,100196.06
2022-12-25T13:53:15.764Z,100193.09
2022-12-25T13:55:52.368Z,100192.94
2022-12-25T13:58:33.817Z,100189.13
2022-12-25T14:01:03.005Z,100176.69
2022-12-25T14:03:46.058Z,100179.41
2022-12-25T14:06:21.505Z,100187.28
2022-12-25T14:08:49.896Z,100184.41
2022-12-25T14:11:22.179Z,100187.63
2022-12-25T14:13:59.914Z,100190.19
2022-12-25T14:16:28.314Z,100197.28
2022-12-25T14:18:59.696Z,100190.03
2022-12-25T14:21:38.330Z,100183.22
2022-12-25T14:24:15.049Z,100178.78
2022-12-25T14:26:43.311Z,100185.78
2022-12-25T14:29:18.220Z,100190.88
2022-12-25T14:31:47.976Z,100204.28
2022-12-25T14:34:25.061Z,100197.19
2022-12-25T14:36:53.416Z,100212.50
2022-12-25T14:39:36.238Z,100208.22
2022-12-25T14:42:26.785Z,100203.13
2022-12-25T14:45:39.605Z,100198.09
2022-12-25T14:48:26.378Z,100183.50
2022-12-25T14:51:02.867Z,100182.53
2022-12-25T14:53:54.463Z,100180.22
2022-12-25T14:56:25.629Z,100171.34
2022-12-25T14:58:59.307Z,100182.25
2022-12-25T15:01:41.510Z,100184.31
2022-12-25T15:04:12.619Z,100193.41
2022-12-25T15:07:08.335Z,100196.47
2022-12-25T15:09:37.654Z,100209.03
2022-12-25T15:12:06.154Z,100199.28
2022-12-25T15:14:36.298Z,100205.75
2022-12-25T15:17:04.528Z,100204.03
2022-12-25T15:19:38.644Z,100200.34
2022-12-25T15:22:06.947Z,100191.59
2022-12-25T15:24:34.908Z,100198.84
2022-12-25T15:27:02.826Z,100186.66
2022-12-25T15:30:09.327Z,100202.09
2022-12-25T15:32:22.201Z,100209.84
2022-12-25T15:34:50.456Z,100210.19
2022-12-25T15:37:19.225Z,100210.34
2022-12-25T15:39:47.193Z,100213.31
2022-12-25T15:42:19.477Z,100198.19
2022-12-25T15:44:47.476Z,100211.81
2022-12-25T15:47:20.190Z,100226.06
2022-12-25T15:49:49.079Z,100224.81
2022-12-25T15:52:17.731Z,100228.59
2022-12-25T15:54:45.574Z,100228.84
2022-12-25T15:57:21.388Z,100237.97
2022-12-25T15:59:49.545Z,100249.03
2022-12-25T16:02:21.057Z,100258.88
2022-12-25T16:04:51.122Z,100243.94
2022-12-25T16:07:25.046Z,100231.31
2022-12-25T16:09:53.182Z,100239.53
2022-12-25T16:12:21.381Z,100244.00
2022-12-25T16:14:49.067Z,100236.91
2022-12-25T16:17:17.108Z,100232.75
2022-12-25T16:19:45.067Z,100231.88
2022-12-25T16:22:18.932Z,100225.91
2022-12-25T16:24:47.043Z,100229.69
2022-12-25T16:27:15.388Z,100232.47
2022-12-25T16:29:43.694Z,100236.97
2022-12-25T16:32:12.959Z,100229.84
2022-12-25T16:34:41.480Z,100232.53
2022-12-25T16:37:09.656Z,100230.75
2022-12-25T16:39:39.052Z,100203.56
2022-12-25T16:42:06.874Z,100188.72
2022-12-25T16:44:37.435Z,100187.06
2022-12-25T16:47:05.905Z,100183.94
2022-12-25T16:49:34.848Z,100186.69
2022-12-25T16:52:03.894Z,100198.41
2022-12-25T16:54:31.624Z,100194.78
2022-12-25T16:56:59.394Z,100206.25
2022-12-25T16:59:29.652Z,100213.09
2022-12-25T17:01:57.579Z,100207.94
2022-12-25T17:04:27.934Z,100215.94
2022-12-25T17:06:56.387Z,100215.78
2022-12-25T17:09:24.892Z,100222.94
2022-12-25T17:11:52.648Z,100229.25
2022-12-25T17:14:20.699Z,100241.91
2022-12-25T17:16:48.853Z,100256.66
2022-12-25T17:19:20.249Z,100253.50
2022-12-25T17:21:48.422Z,100260.25
2022-12-25T17:24:16.895Z,100268.59
2022-12-25T17:26:45.045Z,100266.28
2022-12-25T17:29:19.995Z,100257.41
2022-12-25T17:31:49.999Z,100261.88
2022-12-25T17:34:17.975Z,100244.03
2022-12-25T17:36:45.910Z,100254.72
2022-12-25T17:39:14.023Z,100246.72
2022-12-25T17:41:42.042Z,100242.22
2022-12-25T17:44:10.774Z,100250.09
2022-12-25T17:46:38.889Z,100238.69
2022-12-25T17:49:08.568Z,100251.03
2022-12-25T17:51:36.913Z,100253.72
2022-12-25T17:54:05.631Z,100256.41
2022-12-25T17:56:34.828Z,100258.03
2022-12-25T17:59:08.086Z,100261.66
2022-12-25T18:01:39.048Z,100259.84
2022-12-25T18:04:08.146Z,100249.38
2022-12-25T18:06:37.054Z,100238.59
2022-12-25T18:09:06.534Z,100243.88
2022-12-25T18:11:38.329Z,100232.47
2022-12-25T18:14:09.803Z,100228.22
2022-12-25T18:16:42.210Z,100247.75
2022-12-25T18:19:11.961Z,100253.13
2022-12-25T18:21:39.976Z,100249.59
2022-12-25T18:24:08.819Z,100261.88
2022-12-25T18:26:37.829Z,100251.34
2022-12-25T18:29:07.183Z,100264.69
2022-12-25T18:31:35.845Z,100262.88
2022-12-25T18:34:04.544Z,100262.88
2022-12-25T18:36:35.333Z,100249.78
2022-12-25T18:39:03.909Z,100254.47
2022-12-25T18:41:51.857Z,100264.06
2022-12-25T18:44:20.151Z,100258.06
2022-12-25T18:46:48.254Z,100259.81
2022-12-25T18:49:16.101Z,100278.50
2022-12-25T18:51:44.491Z,100275.19
2022-12-25T18:54:12.524Z,100276.09
2022-12-25T18:56:41.978Z,100282.31
2022-12-25T18:59:10.064Z,100280.72
2022-12-25T19:01:37.967Z,100283.31
2022-12-25T19:04:06.233Z,100271.75
2022-12-25T19:06:34.150Z,100274.50
2022-12-25T19:09:09.079Z,100267.44
2022-12-25T19:11:46.064Z,100271.97
2022-12-25T19:14:15.396Z,100267.56
2022-12-25T19:16:43.573Z,100253.50
2022-12-25T19:19:27.766Z,100242.16
2022-12-25T19:21:57.610Z,100253.72
2022-12-25T19:24:26.415Z,100257.19
2022-12-25T19:26:54.982Z,100253.03
2022-12-25T19:29:24.365Z,100250.47
2022-12-25T19:31:52.652Z,100248.88
2022-12-25T19:34:22.802Z,100246.41
2022-12-25T19:36:52.001Z,100249.38
2022-12-25T19:39:20.165Z,100248.56
2022-12-25T19:41:49.057Z,100253.22
2022-12-25T19:44:17.220Z,100245.47
2022-12-25T19:46:45.804Z,100254.59
2022-12-25T19:49:14.815Z,100250.16
2022-12-25T19:51:46.266Z,100258.25
2022-12-25T19:54:17.299Z,100246.84
2022-12-25T19:56:45.657Z,100254.84
2022-12-25T19:59:14.769Z,100250.53
2022-12-25T20:01:43.579Z,100249.69
2022-12-25T20:04:12.053Z,100243.31
2022-12-25T20:06:42.516Z,100247.66
2022-12-25T20:09:20.859Z,100244.25
2022-12-25T20:11:50.738Z,100243.31
2022-12-25T20:14:19.772Z,100249.50
2022-12-25T20:16:47.861Z,100248.75
2022-12-25T20:19:16.369Z,100247.97
2022-12-25T20:21:44.460Z,100242.88
2022-12-25T20:24:12.540Z,100250.22
2022-12-25T20:26:41.178Z,100248.72
2022-12-25T20:29:09.103Z,100254.28
2022-12-25T20:31:38.208Z,100254.56
2022-12-25T20:34:09.413Z,100258.44
2022-12-25T20:36:38.386Z,100266.50
2022-12-25T20:39:10.055Z,100271.91
2022-12-25T20:41:39.720Z,100272.91
2022-12-25T20:44:10.220Z,100260.78
2022-12-25T20:46:38.369Z,100272.25
2022-12-25T20:49:06.721Z,100270.69
2022-12-25T20:51:35.776Z,100267.28
2022-12-25T20:54:10.237Z,100283.19
2022-12-25T20:56:38.907Z,100285.09
2022-12-25T20:59:07.039Z,100283.34
2022-12-25T21:01:34.899Z,100275.28
2022-12-25T21:04:04.110Z,100280.69
2022-12-25T21:06:31.895Z,100280.72
2022-12-25T21:09:00.124Z,100274.66
2022-12-25T21:11:28.264Z,100266.00
2022-12-25T21:13:56.337Z,100272.47
2022-12-25T21:16:26.049Z,100283.09
2022-12-25T21:18:56.413Z,100289.47
2022-12-25T21:21:25.594Z,100270.91
2022-12-25T21:23:56.783Z,100280.81
2022-12-25T21:26:31.447Z,100275.72
2022-12-25T21:29:02.301Z,100274.31
2022-12-25T21:31:30.991Z,100288.75
2022-12-25T21:33:59.591Z,100289.00
2022-12-25T21:36:34.628Z,100290.75
2022-12-25T21:39:07.417Z,100293.53
2022-12-25T21:41:39.179Z,100297.16
2022-12-25T21:44:07.877Z,100312.00
2022-12-25T21:46:35.939Z,100310.84
2022-12-25T21:49:03.941Z,100314.97
2022-12-25T21:51:52.674Z,100298.88
2022-12-25T21:54:23.373Z,100298.94
2022-12-25T21:56:51.868Z,100298.94
2022-12-25T21:59:22.275Z,100306.75
2022-12-25T22:01:52.776Z,100310.28
2022-12-25T22:04:23.090Z,100304.00
2022-12-25T22:07:10.383Z,100302.28
2022-12-25T22:09:38.792Z,100298.75
2022-12-25T22:12:33.489Z,100302.22
2022-12-25T22:15:06.795Z,100304.09
2022-12-25T22:17:58.318Z,100311.06
2022-12-25T22:20:36.505Z,100310.22
2022-12-25T22:23:05.569Z,100313.75
2022-12-25T22:25:33.635Z,100318.13
2022-12-25T22:28:01.759Z,100311.16
2022-12-25T22:30:30.470Z,100324.41
2022-12-25T22:32:59.168Z,100334.19
2022-12-25T22:35:27.447Z,100334.28
2022-12-25T22:37:55.779Z,100324.50
2022-12-25T22:40:23.739Z,100320.97
2022-12-25T22:42:55.412Z,100334.19
2022-12-25T22:45:24.429Z,100336.06
2022-12-25T22:47:53.033Z,100363.81
2022-12-25T22:50:20.901Z,100382.81
2022-12-25T22:52:48.825Z,100379.38
2022-12-25T22:55:19.326Z,100377.59
2022-12-25T22:57:47.258Z,100387.31
2022-12-25T23:00:15.519Z,100395.38
2022-12-25T23:02:43.607Z,100397.34
2022-12-25T23:05:11.477Z,100393.91
2022-12-25T23:07:40.501Z,100392.88
2022-12-25T23:10:10.329Z,100394.69
2022-12-25T23:12:57.081Z,100388.59
2022-12-25T23:15:27.517Z,100390.59
2022-12-25T23:18:14.199Z,100396.84
2022-12-25T23:21:00.743Z,100388.91
2022-12-25T23:23:47.418Z,100399.56
2022-12-25T23:26:16.546Z,100386.38
2022-12-25T23:29:03.446Z,100379.31
2022-12-25T23:31:36.611Z,100371.50
2022-12-25T23:34:06.614Z,100379.41
2022-12-25T23:36:34.847Z,100376.75
2022-12-25T23:39:09.766Z,100375.00
2022-12-25T23:41:40.925Z,100377.56
2022-12-25T23:44:11.424Z,100382.91
2022-12-25T23:46:41.336Z,100388.16
2022-12-25T23:49:22.278Z,100385.50
2022-12-25T23:51:50.405Z,100383.66
2022-12-25T23:54:23.254Z,100396.84
2022-12-25T23:56:52.111Z,100388.09
2022-12-25T23:59:20.332Z,100386.25
